sensor_id;sensor_type;location;lat;lon;timestamp;pressure;altitude;pressure_sealevel;temperature;humidity
53908;BME280;40469;47.998;7.794;2022-08-01T00:00:26;99032.88;;;21.98;50.56
53908;BME280;40469;47.998;7.794;2022-08-01T00:02:51;99034.25;;;22.05;50.51
53908;BME280;40469;47.998;7.794;2022-08-01T00:05:17;99036.44;;;21.97;50.93
53908;BME280;40469;47.998;7.794;2022-08-01T00:07:42;99026.94;;;21.93;50.83
53908;BME280;40469;47.998;7.794;2022-08-01T00:10:10;99036.81;;;21.91;50.72
53908;BME280;40469;47.998;7.794;2022-08-01T00:12:36;99028.66;;;21.78;50.85
53908;BME280;40469;47.998;7.794;2022-08-01T00:15:04;99034.44;;;21.69;51.35
53908;BME280;40469;47.998;7.794;2022-08-01T00:17:30;99032.69;;;21.69;51.35
53908;BME280;40469;47.998;7.794;2022-08-01T00:19:56;99028.44;;;21.65;51.61
53908;BME280;40469;47.998;7.794;2022-08-01T00:22:21;99029.75;;;21.74;51.46
53908;BME280;40469;47.998;7.794;2022-08-01T00:24:46;99038.25;;;21.81;51.36
53908;BME280;40469;47.998;7.794;2022-08-01T00:27:12;99036.97;;;22.04;50.55
53908;BME280;40469;47.998;7.794;2022-08-01T00:29:37;99038.09;;;22.15;50.22
53908;BME280;40469;47.998;7.794;2022-08-01T00:32:03;99041.59;;;22.00;51.03
53908;BME280;40469;47.998;7.794;2022-08-01T00:34:29;99040.66;;;21.85;51.35
53908;BME280;40469;47.998;7.794;2022-08-01T00:36:54;99042.56;;;21.83;51.66
53908;BME280;40469;47.998;7.794;2022-08-01T00:39:19;99043.53;;;21.65;52.02
53908;BME280;40469;47.998;7.794;2022-08-01T00:41:45;99038.59;;;21.74;51.51
53908;BME280;40469;47.998;7.794;2022-08-01T00:44:10;99040.28;;;21.59;52.08
53908;BME280;40469;47.998;7.794;2022-08-01T00:46:35;99043.97;;;21.57;52.04
53908;BME280;40469;47.998;7.794;2022-08-01T00:49:01;99038.28;;;21.47;52.61
53908;BME280;40469;47.998;7.794;2022-08-01T00:51:27;99038.66;;;21.57;52.16
53908;BME280;40469;47.998;7.794;2022-08-01T00:53:53;99038.66;;;21.57;52.13
53908;BME280;40469;47.998;7.794;2022-08-01T00:56:24;99033.72;;;21.49;52.46
53908;BME280;40469;47.998;7.794;2022-08-01T00:58:50;99047.97;;;21.31;53.13
53908;BME280;40469;47.998;7.794;2022-08-01T01:01:16;99048.28;;;21.25;53.25
53908;BME280;40469;47.998;7.794;2022-08-01T01:03:42;99044.63;;;21.27;52.86
53908;BME280;40469;47.998;7.794;2022-08-01T01:06:25;99045.16;;;21.34;52.72
53908;BME280;40469;47.998;7.794;2022-08-01T01:12:02;99051.16;;;21.37;52.66
53908;BME280;40469;47.998;7.794;2022-08-01T01:15:33;99049.38;;;21.20;53.23
53908;BME280;40469;47.998;7.794;2022-08-01T01:17:38;99046.44;;;21.27;53.23
53908;BME280;40469;47.998;7.794;2022-08-01T01:20:08;99050.72;;;21.29;53.11
53908;BME280;40469;47.998;7.794;2022-08-01T01:22:50;99048.69;;;21.17;53.65
53908;BME280;40469;47.998;7.794;2022-08-01T01:25:31;99053.31;;;20.96;54.45
53908;BME280;40469;47.998;7.794;2022-08-01T01:29:23;99052.69;;;21.08;53.91
53908;BME280;40469;47.998;7.794;2022-08-01T01:31:24;99054.72;;;20.86;54.70
53908;BME280;40469;47.998;7.794;2022-08-01T01:33:51;99060.78;;;20.88;54.44
53908;BME280;40469;47.998;7.794;2022-08-01T01:36:19;99051.81;;;20.73;55.56
53908;BME280;40469;47.998;7.794;2022-08-01T01:38:46;99049.63;;;20.63;55.90
53908;BME280;40469;47.998;7.794;2022-08-01T01:41:15;99045.66;;;20.72;55.50
53908;BME280;40469;47.998;7.794;2022-08-01T01:43:43;99050.19;;;20.70;55.51
53908;BME280;40469;47.998;7.794;2022-08-01T01:46:11;99059.41;;;20.63;55.88
53908;BME280;40469;47.998;7.794;2022-08-01T01:48:38;99062.13;;;20.61;56.08
53908;BME280;40469;47.998;7.794;2022-08-01T01:51:04;99057.13;;;20.73;55.42
53908;BME280;40469;47.998;7.794;2022-08-01T01:53:32;99048.63;;;20.47;56.36
53908;BME280;40469;47.998;7.794;2022-08-01T01:55:58;99056.56;;;20.66;55.69
53908;BME280;40469;47.998;7.794;2022-08-01T01:58:27;99058.09;;;20.53;56.10
53908;BME280;40469;47.998;7.794;2022-08-01T02:00:55;99057.78;;;20.59;55.85
53908;BME280;40469;47.998;7.794;2022-08-01T02:03:22;99056.91;;;20.22;57.16
53908;BME280;40469;47.998;7.794;2022-08-01T02:05:51;99062.59;;;20.14;57.55
53908;BME280;40469;47.998;7.794;2022-08-01T02:08:17;99062.72;;;20.11;57.92
53908;BME280;40469;47.998;7.794;2022-08-01T02:10:44;99062.38;;;20.00;58.14
53908;BME280;40469;47.998;7.794;2022-08-01T02:13:34;99059.22;;;20.11;57.97
53908;BME280;40469;47.998;7.794;2022-08-01T02:16:02;99053.34;;;20.04;58.03
53908;BME280;40469;47.998;7.794;2022-08-01T02:18:28;99054.78;;;20.11;58.22
53908;BME280;40469;47.998;7.794;2022-08-01T02:20:54;99052.00;;;19.95;58.48
53908;BME280;40469;47.998;7.794;2022-08-01T02:23:22;99057.28;;;19.95;58.62
53908;BME280;40469;47.998;7.794;2022-08-01T02:25:50;99054.72;;;19.94;58.55
53908;BME280;40469;47.998;7.794;2022-08-01T02:28:20;99053.16;;;19.89;59.14
53908;BME280;40469;47.998;7.794;2022-08-01T02:30:50;99059.16;;;19.93;58.96
53908;BME280;40469;47.998;7.794;2022-08-01T02:33:22;99054.94;;;19.89;59.22
53908;BME280;40469;47.998;7.794;2022-08-01T02:35:52;99056.44;;;19.95;58.96
53908;BME280;40469;47.998;7.794;2022-08-01T02:38:22;99053.94;;;19.92;59.27
53908;BME280;40469;47.998;7.794;2022-08-01T02:40:50;99048.03;;;19.85;59.19
53908;BME280;40469;47.998;7.794;2022-08-01T02:43:21;99059.59;;;19.84;59.58
53908;BME280;40469;47.998;7.794;2022-08-01T02:45:51;99065.53;;;19.89;59.14
53908;BME280;40469;47.998;7.794;2022-08-01T02:48:18;99050.63;;;19.86;59.18
53908;BME280;40469;47.998;7.794;2022-08-01T02:50:47;99061.47;;;19.82;59.41
53908;BME280;40469;47.998;7.794;2022-08-01T02:53:14;99059.78;;;19.79;59.67
53908;BME280;40469;47.998;7.794;2022-08-01T02:55:42;99070.59;;;19.94;59.15
53908;BME280;40469;47.998;7.794;2022-08-01T02:58:11;99059.50;;;20.04;58.59
53908;BME280;40469;47.998;7.794;2022-08-01T03:00:38;99058.66;;;19.85;59.40
53908;BME280;40469;47.998;7.794;2022-08-01T03:03:06;99053.66;;;19.98;58.79
53908;BME280;40469;47.998;7.794;2022-08-01T03:05:35;99050.91;;;19.99;58.64
53908;BME280;40469;47.998;7.794;2022-08-01T03:08:02;99054.00;;;19.90;59.01
53908;BME280;40469;47.998;7.794;2022-08-01T03:10:29;99052.72;;;19.99;59.00
53908;BME280;40469;47.998;7.794;2022-08-01T03:12:57;99051.56;;;20.04;58.41
53908;BME280;40469;47.998;7.794;2022-08-01T03:15:26;99054.50;;;19.98;58.99
53908;BME280;40469;47.998;7.794;2022-08-01T03:17:54;99051.66;;;19.84;59.68
53908;BME280;40469;47.998;7.794;2022-08-01T03:20:21;99051.22;;;19.93;58.73
53908;BME280;40469;47.998;7.794;2022-08-01T03:22:50;99053.50;;;19.82;59.40
53908;BME280;40469;47.998;7.794;2022-08-01T03:25:18;99048.13;;;19.83;59.38
53908;BME280;40469;47.998;7.794;2022-08-01T03:27:48;99048.28;;;19.80;59.55
53908;BME280;40469;47.998;7.794;2022-08-01T03:30:16;99051.72;;;19.82;59.62
53908;BME280;40469;47.998;7.794;2022-08-01T03:32:42;99052.94;;;19.75;59.78
53908;BME280;40469;47.998;7.794;2022-08-01T03:35:08;99054.50;;;19.79;59.71
53908;BME280;40469;47.998;7.794;2022-08-01T03:37:42;99054.44;;;19.81;59.89
53908;BME280;40469;47.998;7.794;2022-08-01T03:40:12;99054.28;;;19.84;59.76
53908;BME280;40469;47.998;7.794;2022-08-01T03:42:43;99049.97;;;19.81;59.61
53908;BME280;40469;47.998;7.794;2022-08-01T03:45:13;99048.28;;;19.80;59.94
53908;BME280;40469;47.998;7.794;2022-08-01T03:47:42;99047.72;;;19.72;59.98
53908;BME280;40469;47.998;7.794;2022-08-01T03:50:10;99048.56;;;19.73;60.06
53908;BME280;40469;47.998;7.794;2022-08-01T03:52:38;99042.63;;;19.67;60.25
53908;BME280;40469;47.998;7.794;2022-08-01T03:55:06;99042.56;;;19.69;60.07
53908;BME280;40469;47.998;7.794;2022-08-01T03:57:33;99045.28;;;19.67;60.46
53908;BME280;40469;47.998;7.794;2022-08-01T03:59:59;99046.09;;;19.69;60.22
53908;BME280;40469;47.998;7.794;2022-08-01T04:02:28;99046.00;;;19.71;60.25
53908;BME280;40469;47.998;7.794;2022-08-01T04:04:55;99050.03;;;19.80;59.87
53908;BME280;40469;47.998;7.794;2022-08-01T04:07:25;99042.78;;;19.64;60.31
53908;BME280;40469;47.998;7.794;2022-08-01T04:09:51;99041.25;;;19.59;60.80
53908;BME280;40469;47.998;7.794;2022-08-01T04:12:17;99041.56;;;19.52;60.99
53908;BME280;40469;47.998;7.794;2022-08-01T04:14:42;99036.44;;;19.48;60.87
53908;BME280;40469;47.998;7.794;2022-08-01T04:17:08;99032.09;;;19.47;60.90
53908;BME280;40469;47.998;7.794;2022-08-01T04:19:33;99041.41;;;19.56;60.63
53908;BME280;40469;47.998;7.794;2022-08-01T04:21:59;99036.53;;;19.65;60.30
53908;BME280;40469;47.998;7.794;2022-08-01T04:24:26;99038.78;;;19.56;60.77
53908;BME280;40469;47.998;7.794;2022-08-01T04:26:54;99042.34;;;19.55;60.96
53908;BME280;40469;47.998;7.794;2022-08-01T04:29:20;99043.91;;;19.59;60.87
53908;BME280;40469;47.998;7.794;2022-08-01T04:31:48;99048.41;;;19.57;60.84
53908;BME280;40469;47.998;7.794;2022-08-01T04:34:17;99047.28;;;19.62;60.71
53908;BME280;40469;47.998;7.794;2022-08-01T04:36:45;99044.72;;;19.61;61.11
53908;BME280;40469;47.998;7.794;2022-08-01T04:39:11;99049.94;;;19.62;60.60
53908;BME280;40469;47.998;7.794;2022-08-01T04:41:38;99055.75;;;19.70;60.51
53908;BME280;40469;47.998;7.794;2022-08-01T04:44:05;99048.34;;;19.58;60.83
53908;BME280;40469;47.998;7.794;2022-08-01T04:46:33;99057.97;;;19.61;60.92
53908;BME280;40469;47.998;7.794;2022-08-01T04:48:59;99052.38;;;19.67;60.82
53908;BME280;40469;47.998;7.794;2022-08-01T04:51:25;99057.59;;;19.68;60.82
53908;BME280;40469;47.998;7.794;2022-08-01T04:53:51;99049.59;;;19.70;60.78
53908;BME280;40469;47.998;7.794;2022-08-01T04:56:18;99051.19;;;19.74;60.70
53908;BME280;40469;47.998;7.794;2022-08-01T04:58:46;99054.44;;;19.81;60.38
53908;BME280;40469;47.998;7.794;2022-08-01T05:01:12;99055.94;;;19.86;60.21
53908;BME280;40469;47.998;7.794;2022-08-01T05:03:37;99057.34;;;19.94;60.05
53908;BME280;40469;47.998;7.794;2022-08-01T05:06:03;99057.22;;;19.97;60.06
53908;BME280;40469;47.998;7.794;2022-08-01T05:08:28;99054.56;;;19.97;60.33
53908;BME280;40469;47.998;7.794;2022-08-01T05:10:54;99055.22;;;20.02;60.29
53908;BME280;40469;47.998;7.794;2022-08-01T05:13:19;99050.19;;;20.15;60.26
53908;BME280;40469;47.998;7.794;2022-08-01T05:15:45;99054.06;;;20.26;60.12
53908;BME280;40469;47.998;7.794;2022-08-01T05:18:11;99053.53;;;20.37;60.18
53908;BME280;40469;47.998;7.794;2022-08-01T05:20:37;99060.31;;;20.43;59.61
53908;BME280;40469;47.998;7.794;2022-08-01T05:23:04;99065.47;;;20.46;58.92
53908;BME280;40469;47.998;7.794;2022-08-01T05:25:29;99063.13;;;20.40;59.68
53908;BME280;40469;47.998;7.794;2022-08-01T05:27:54;99064.34;;;20.33;59.37
53908;BME280;40469;47.998;7.794;2022-08-01T05:30:20;99067.09;;;20.12;59.94
53908;BME280;40469;47.998;7.794;2022-08-01T05:32:45;99072.03;;;20.01;60.29
53908;BME280;40469;47.998;7.794;2022-08-01T05:35:11;99069.31;;;20.21;60.10
53908;BME280;40469;47.998;7.794;2022-08-01T05:37:36;99073.69;;;20.22;59.71
53908;BME280;40469;47.998;7.794;2022-08-01T05:40:02;99066.16;;;20.32;59.49
53908;BME280;40469;47.998;7.794;2022-08-01T05:42:28;99074.41;;;20.26;59.52
53908;BME280;40469;47.998;7.794;2022-08-01T05:44:53;99078.69;;;20.10;60.48
53908;BME280;40469;47.998;7.794;2022-08-01T05:47:18;99075.84;;;19.95;61.02
53908;BME280;40469;47.998;7.794;2022-08-01T05:49:45;99076.41;;;20.02;61.57
53908;BME280;40469;47.998;7.794;2022-08-01T05:52:11;99075.59;;;20.19;60.83
53908;BME280;40469;47.998;7.794;2022-08-01T05:54:37;99081.28;;;19.92;61.65
53908;BME280;40469;47.998;7.794;2022-08-01T05:57:02;99080.66;;;19.66;62.41
53908;BME280;40469;47.998;7.794;2022-08-01T05:59:29;99078.72;;;19.70;62.54
53908;BME280;40469;47.998;7.794;2022-08-01T06:01:54;99088.81;;;19.82;62.33
53908;BME280;40469;47.998;7.794;2022-08-01T06:04:20;99088.22;;;19.76;62.50
53908;BME280;40469;47.998;7.794;2022-08-01T06:06:45;99086.56;;;19.73;62.54
53908;BME280;40469;47.998;7.794;2022-08-01T06:09:11;99087.38;;;19.75;62.60
53908;BME280;40469;47.998;7.794;2022-08-01T06:11:36;99085.78;;;19.90;62.24
53908;BME280;40469;47.998;7.794;2022-08-01T06:14:02;99085.72;;;19.92;62.12
53908;BME280;40469;47.998;7.794;2022-08-01T06:16:27;99086.16;;;20.01;61.97
53908;BME280;40469;47.998;7.794;2022-08-01T06:18:52;99082.63;;;20.01;61.72
53908;BME280;40469;47.998;7.794;2022-08-01T06:21:18;99083.94;;;20.11;61.39
53908;BME280;40469;47.998;7.794;2022-08-01T06:23:43;99079.41;;;20.13;61.27
53908;BME280;40469;47.998;7.794;2022-08-01T06:26:09;99078.13;;;20.22;61.04
53908;BME280;40469;47.998;7.794;2022-08-01T06:28:35;99075.03;;;20.31;61.20
53908;BME280;40469;47.998;7.794;2022-08-01T06:31:00;99081.59;;;20.41;60.67
53908;BME280;40469;47.998;7.794;2022-08-01T06:33:26;99080.31;;;20.50;60.13
53908;BME280;40469;47.998;7.794;2022-08-01T06:35:52;99078.88;;;20.62;60.50
53908;BME280;40469;47.998;7.794;2022-08-01T06:38:18;99075.69;;;20.73;59.88
53908;BME280;40469;47.998;7.794;2022-08-01T06:40:43;99083.81;;;20.87;59.54
53908;BME280;40469;47.998;7.794;2022-08-01T06:43:09;99083.06;;;21.02;59.12
53908;BME280;40469;47.998;7.794;2022-08-01T06:45:36;99079.69;;;20.99;58.84
53908;BME280;40469;47.998;7.794;2022-08-01T06:48:02;99073.75;;;21.11;59.39
53908;BME280;40469;47.998;7.794;2022-08-01T06:50:27;99073.91;;;21.26;58.45
53908;BME280;40469;47.998;7.794;2022-08-01T06:52:52;99074.47;;;21.32;58.73
53908;BME280;40469;47.998;7.794;2022-08-01T06:55:18;99074.47;;;21.50;57.62
53908;BME280;40469;47.998;7.794;2022-08-01T06:57:49;99079.28;;;21.59;57.12
53908;BME280;40469;47.998;7.794;2022-08-01T07:00:15;99074.13;;;21.56;57.11
53908;BME280;40469;47.998;7.794;2022-08-01T07:02:43;99078.00;;;21.66;57.57
53908;BME280;40469;47.998;7.794;2022-08-01T07:05:09;99073.38;;;21.70;56.62
53908;BME280;40469;47.998;7.794;2022-08-01T07:07:35;99070.75;;;21.86;55.51
53908;BME280;40469;47.998;7.794;2022-08-01T07:10:00;99065.44;;;21.86;55.85
53908;BME280;40469;47.998;7.794;2022-08-01T07:12:25;99064.06;;;21.94;55.71
53908;BME280;40469;47.998;7.794;2022-08-01T07:14:51;99062.72;;;22.03;55.76
53908;BME280;40469;47.998;7.794;2022-08-01T07:17:16;99062.03;;;22.00;55.38
53908;BME280;40469;47.998;7.794;2022-08-01T07:19:41;99067.44;;;22.14;55.72
53908;BME280;40469;47.998;7.794;2022-08-01T07:22:07;99068.56;;;22.26;55.73
53908;BME280;40469;47.998;7.794;2022-08-01T07:24:32;99061.81;;;22.36;55.37
53908;BME280;40469;47.998;7.794;2022-08-01T07:26:57;99063.78;;;22.48;55.36
53908;BME280;40469;47.998;7.794;2022-08-01T07:29:26;99068.94;;;22.66;54.93
53908;BME280;40469;47.998;7.794;2022-08-01T07:31:53;99062.53;;;22.70;54.53
53908;BME280;40469;47.998;7.794;2022-08-01T07:34:19;99062.25;;;22.75;54.31
53908;BME280;40469;47.998;7.794;2022-08-01T07:36:45;99061.97;;;22.79;54.33
53908;BME280;40469;47.998;7.794;2022-08-01T07:39:10;99053.81;;;22.82;54.37
53908;BME280;40469;47.998;7.794;2022-08-01T07:41:36;99050.63;;;22.91;54.15
53908;BME280;40469;47.998;7.794;2022-08-01T07:44:01;99053.47;;;23.03;54.12
53908;BME280;40469;47.998;7.794;2022-08-01T07:46:26;99054.84;;;23.10;53.79
53908;BME280;40469;47.998;7.794;2022-08-01T07:48:52;99044.03;;;23.13;54.25
53908;BME280;40469;47.998;7.794;2022-08-01T07:51:18;99056.44;;;23.28;53.63
53908;BME280;40469;47.998;7.794;2022-08-01T07:53:43;99050.72;;;23.35;53.53
53908;BME280;40469;47.998;7.794;2022-08-01T07:56:08;99050.72;;;23.35;53.38
53908;BME280;40469;47.998;7.794;2022-08-01T07:58:35;99052.09;;;23.42;53.30
53908;BME280;40469;47.998;7.794;2022-08-01T08:01:00;99044.44;;;23.36;53.13
53908;BME280;40469;47.998;7.794;2022-08-01T08:03:26;99045.50;;;23.47;52.96
53908;BME280;40469;47.998;7.794;2022-08-01T08:05:51;99050.34;;;23.70;52.49
53908;BME280;40469;47.998;7.794;2022-08-01T08:08:17;99049.00;;;23.77;52.26
53908;BME280;40469;47.998;7.794;2022-08-01T08:10:43;99046.16;;;23.80;51.82
53908;BME280;40469;47.998;7.794;2022-08-01T08:13:08;99037.25;;;23.81;51.92
53908;BME280;40469;47.998;7.794;2022-08-01T08:15:34;99044.00;;;23.87;51.67
53908;BME280;40469;47.998;7.794;2022-08-01T08:17:59;99039.97;;;23.94;51.44
53908;BME280;40469;47.998;7.794;2022-08-01T08:20:25;99043.69;;;24.06;51.01
53908;BME280;40469;47.998;7.794;2022-08-01T08:22:52;99041.59;;;24.11;51.21
53908;BME280;40469;47.998;7.794;2022-08-01T08:25:18;99032.00;;;24.21;51.04
53908;BME280;40469;47.998;7.794;2022-08-01T08:27:50;99040.97;;;24.20;50.79
53908;BME280;40469;47.998;7.794;2022-08-01T08:30:15;99034.38;;;24.26;50.54
53908;BME280;40469;47.998;7.794;2022-08-01T08:32:41;99035.97;;;24.28;50.72
53908;BME280;40469;47.998;7.794;2022-08-01T08:35:07;99037.41;;;24.34;49.69
53908;BME280;40469;47.998;7.794;2022-08-01T08:37:35;99040.41;;;24.42;50.12
53908;BME280;40469;47.998;7.794;2022-08-01T08:40:01;99033.81;;;24.62;49.76
53908;BME280;40469;47.998;7.794;2022-08-01T08:42:26;99038.19;;;24.76;49.05
53908;BME280;40469;47.998;7.794;2022-08-01T08:44:51;99032.75;;;24.77;48.74
53908;BME280;40469;47.998;7.794;2022-08-01T08:47:19;99032.03;;;24.88;48.96
53908;BME280;40469;47.998;7.794;2022-08-01T08:49:47;99036.66;;;24.99;48.85
53908;BME280;40469;47.998;7.794;2022-08-01T08:52:14;99027.88;;;24.97;48.37
53908;BME280;40469;47.998;7.794;2022-08-01T08:54:41;99022.34;;;25.00;48.61
53908;BME280;40469;47.998;7.794;2022-08-01T08:57:07;99021.94;;;25.19;47.95
53908;BME280;40469;47.998;7.794;2022-08-01T08:59:32;99018.22;;;25.47;46.32
53908;BME280;40469;47.998;7.794;2022-08-01T09:01:58;99017.13;;;25.63;46.07
53908;BME280;40469;47.998;7.794;2022-08-01T09:04:25;99015.31;;;25.63;45.15
53908;BME280;40469;47.998;7.794;2022-08-01T09:06:52;99018.63;;;25.67;46.02
53908;BME280;40469;47.998;7.794;2022-08-01T09:09:18;99020.94;;;25.84;45.97
53908;BME280;40469;47.998;7.794;2022-08-01T09:11:43;99026.69;;;26.04;44.35
53908;BME280;40469;47.998;7.794;2022-08-01T09:14:14;99022.22;;;26.28;43.15
53908;BME280;40469;47.998;7.794;2022-08-01T09:16:43;99020.13;;;26.21;42.99
53908;BME280;40469;47.998;7.794;2022-08-01T09:19:17;99020.81;;;26.36;43.14
53908;BME280;40469;47.998;7.794;2022-08-01T09:21:59;99023.47;;;26.60;42.66
53908;BME280;40469;47.998;7.794;2022-08-01T09:24:26;99021.22;;;27.13;41.57
53908;BME280;40469;47.998;7.794;2022-08-01T09:26:52;99020.69;;;27.43;40.60
53908;BME280;40469;47.998;7.794;2022-08-01T09:29:23;99019.63;;;27.11;40.12
53908;BME280;40469;47.998;7.794;2022-08-01T09:31:49;99017.16;;;27.66;40.09
53908;BME280;40469;47.998;7.794;2022-08-01T09:34:16;99012.00;;;28.08;39.07
53908;BME280;40469;47.998;7.794;2022-08-01T09:36:54;99016.03;;;28.13;39.54
53908;BME280;40469;47.998;7.794;2022-08-01T09:39:32;99009.53;;;28.16;39.70
53908;BME280;40469;47.998;7.794;2022-08-01T09:44:44;99006.16;;;28.46;38.92
53908;BME280;40469;47.998;7.794;2022-08-01T09:47:10;99013.44;;;28.67;38.63
53908;BME280;40469;47.998;7.794;2022-08-01T09:49:38;99007.75;;;28.81;38.21
53908;BME280;40469;47.998;7.794;2022-08-01T09:52:20;99013.06;;;28.92;38.33
53908;BME280;40469;47.998;7.794;2022-08-01T09:55:04;99004.47;;;28.99;38.05
53908;BME280;40469;47.998;7.794;2022-08-01T09:57:30;99000.81;;;29.21;37.66
53908;BME280;40469;47.998;7.794;2022-08-01T09:59:57;98998.81;;;29.44;37.23
53908;BME280;40469;47.998;7.794;2022-08-01T10:02:32;98998.22;;;29.71;36.61
53908;BME280;40469;47.998;7.794;2022-08-01T10:04:58;98998.75;;;29.65;36.77
53908;BME280;40469;47.998;7.794;2022-08-01T10:07:24;98996.59;;;29.90;36.50
53908;BME280;40469;47.998;7.794;2022-08-01T10:09:50;98995.59;;;29.91;36.89
53908;BME280;40469;47.998;7.794;2022-08-01T10:12:18;98989.16;;;30.13;36.37
53908;BME280;40469;47.998;7.794;2022-08-01T10:14:46;98987.06;;;30.94;35.16
53908;BME280;40469;47.998;7.794;2022-08-01T10:17:15;98976.81;;;30.88;34.63
53908;BME280;40469;47.998;7.794;2022-08-01T10:19:42;98981.38;;;30.78;34.17
53908;BME280;40469;47.998;7.794;2022-08-01T10:22:10;98976.63;;;31.19;33.99
53908;BME280;40469;47.998;7.794;2022-08-01T10:24:39;98976.94;;;31.63;33.16
53908;BME280;40469;47.998;7.794;2022-08-01T10:27:09;98967.16;;;32.08;32.25
53908;BME280;40469;47.998;7.794;2022-08-01T10:29:47;98963.41;;;32.55;31.61
53908;BME280;40469;47.998;7.794;2022-08-01T10:32:15;98961.00;;;32.69;31.80
53908;BME280;40469;47.998;7.794;2022-08-01T10:34:41;98949.81;;;32.46;32.43
53908;BME280;40469;47.998;7.794;2022-08-01T10:37:06;98960.91;;;31.80;32.81
53908;BME280;40469;47.998;7.794;2022-08-01T10:39:33;98965.13;;;31.64;33.08
53908;BME280;40469;47.998;7.794;2022-08-01T10:42:00;98959.69;;;32.20;32.06
53908;BME280;40469;47.998;7.794;2022-08-01T10:44:27;98949.72;;;32.38;31.67
53908;BME280;40469;47.998;7.794;2022-08-01T10:47:09;98949.31;;;31.97;32.32
53908;BME280;40469;47.998;7.794;2022-08-01T10:49:39;98957.38;;;32.25;31.79
53908;BME280;40469;47.998;7.794;2022-08-01T10:52:06;98948.25;;;32.26;31.07
53908;BME280;40469;47.998;7.794;2022-08-01T10:54:38;98943.94;;;32.33;32.08
53908;BME280;40469;47.998;7.794;2022-08-01T10:57:04;98935.91;;;32.59;30.51
53908;BME280;40469;47.998;7.794;2022-08-01T10:59:32;98937.47;;;32.62;30.52
53908;BME280;40469;47.998;7.794;2022-08-01T11:02:00;98939.69;;;32.93;29.97
53908;BME280;40469;47.998;7.794;2022-08-01T11:07:02;98933.47;;;32.92;29.30
53908;BME280;40469;47.998;7.794;2022-08-01T11:09:38;98922.13;;;33.15;29.72
53908;BME280;40469;47.998;7.794;2022-08-01T11:12:08;98930.13;;;32.36;29.01
53908;BME280;40469;47.998;7.794;2022-08-01T11:20:23;98916.00;;;32.24;30.63
53908;BME280;40469;47.998;7.794;2022-08-01T11:30:55;98915.66;;;31.36;30.93
53908;BME280;40469;47.998;7.794;2022-08-01T11:38:47;98906.59;;;31.65;31.09
53908;BME280;40469;47.998;7.794;2022-08-01T11:41:21;98890.59;;;32.35;30.25
53908;BME280;40469;47.998;7.794;2022-08-01T11:43:59;98900.94;;;32.22;29.98
53908;BME280;40469;47.998;7.794;2022-08-01T11:46:54;98901.00;;;32.48;29.53
53908;BME280;40469;47.998;7.794;2022-08-01T11:52:19;98892.78;;;31.68;30.99
53908;BME280;40469;47.998;7.794;2022-08-01T11:54:47;98893.78;;;32.30;31.31
53908;BME280;40469;47.998;7.794;2022-08-01T11:57:16;98883.72;;;32.41;30.21
53908;BME280;40469;47.998;7.794;2022-08-01T11:59:53;98891.41;;;32.72;29.74
53908;BME280;40469;47.998;7.794;2022-08-01T12:04:57;98887.31;;;32.67;29.18
53908;BME280;40469;47.998;7.794;2022-08-01T12:07:24;98895.47;;;32.31;29.40
53908;BME280;40469;47.998;7.794;2022-08-01T12:10:17;98895.38;;;31.87;29.85
53908;BME280;40469;47.998;7.794;2022-08-01T12:12:48;98894.50;;;31.87;29.93
53908;BME280;40469;47.998;7.794;2022-08-01T12:15:15;98888.16;;;31.60;30.06
53908;BME280;40469;47.998;7.794;2022-08-01T12:17:48;98885.91;;;32.19;29.12
53908;BME280;40469;47.998;7.794;2022-08-01T12:20:18;98870.25;;;32.23;29.15
53908;BME280;40469;47.998;7.794;2022-08-01T12:22:44;98877.38;;;32.50;28.94
53908;BME280;40469;47.998;7.794;2022-08-01T12:25:13;98875.84;;;33.00;28.32
53908;BME280;40469;47.998;7.794;2022-08-01T12:27:41;98869.38;;;32.84;28.65
53908;BME280;40469;47.998;7.794;2022-08-01T12:30:12;98871.63;;;33.05;28.84
53908;BME280;40469;47.998;7.794;2022-08-01T12:32:39;98869.22;;;32.94;29.48
53908;BME280;40469;47.998;7.794;2022-08-01T12:35:14;98869.91;;;32.96;28.91
53908;BME280;40469;47.998;7.794;2022-08-01T12:37:44;98862.66;;;33.31;29.46
53908;BME280;40469;47.998;7.794;2022-08-01T12:42:44;98869.09;;;33.73;28.28
53908;BME280;40469;47.998;7.794;2022-08-01T12:45:18;98869.28;;;33.29;28.07
53908;BME280;40469;47.998;7.794;2022-08-01T12:47:45;98870.50;;;33.08;28.82
53908;BME280;40469;47.998;7.794;2022-08-01T12:50:15;98870.81;;;32.79;29.78
53908;BME280;40469;47.998;7.794;2022-08-01T12:52:41;98864.75;;;33.46;29.18
53908;BME280;40469;47.998;7.794;2022-08-01T12:55:08;98869.28;;;33.88;28.27
53908;BME280;40469;47.998;7.794;2022-08-01T12:57:35;98875.41;;;34.06;28.11
53908;BME280;40469;47.998;7.794;2022-08-01T13:00:22;98854.72;;;33.97;28.05
53908;BME280;40469;47.998;7.794;2022-08-01T13:02:49;98864.72;;;34.13;27.48
53908;BME280;40469;47.998;7.794;2022-08-01T13:05:16;98864.88;;;33.78;27.41
53908;BME280;40469;47.998;7.794;2022-08-01T13:07:45;98854.16;;;33.69;27.37
53908;BME280;40469;47.998;7.794;2022-08-01T13:10:11;98857.50;;;33.54;27.63
53908;BME280;40469;47.998;7.794;2022-08-01T13:12:38;98843.56;;;34.08;27.82
53908;BME280;40469;47.998;7.794;2022-08-01T13:17:47;98847.13;;;32.99;28.61
53908;BME280;40469;47.998;7.794;2022-08-01T13:20:24;98850.00;;;32.27;29.58
53908;BME280;40469;47.998;7.794;2022-08-01T13:22:50;98842.06;;;31.71;30.23
53908;BME280;40469;47.998;7.794;2022-08-01T13:25:17;98846.69;;;31.79;30.37
53908;BME280;40469;47.998;7.794;2022-08-01T13:27:42;98837.81;;;31.87;30.96
53908;BME280;40469;47.998;7.794;2022-08-01T13:30:17;98837.81;;;32.23;30.80
53908;BME280;40469;47.998;7.794;2022-08-01T13:32:44;98838.47;;;32.43;31.55
53908;BME280;40469;47.998;7.794;2022-08-01T13:35:21;98832.19;;;32.95;30.27
53908;BME280;40469;47.998;7.794;2022-08-01T13:37:47;98822.97;;;32.71;30.82
53908;BME280;40469;47.998;7.794;2022-08-01T13:40:23;98828.19;;;32.99;30.51
53908;BME280;40469;47.998;7.794;2022-08-01T13:42:49;98817.19;;;32.66;30.51